Market Depth
Market Depth
Mid market price 250.005
Name Price Volume Changes
BTC/PM 21653.14 7.48 -0.07%
USDT20/PM 1.03 0.00 0.00%
USDTRX/PM 1.03 4939.10 0.00%
PM/USD 1.00 0.00 0.00%
Buy Orders Total: 69.06 PM
PRICE
USDT20
PM
1.010 58.000000 58.580
0.480 1.000000 0.480
0.010 1000.000000 10.000
Sell Orders Total: 20.54 USDT20
PRICE
USDT20
PM
100.000 10.535420 1053.542
500.000 10.000000 5000.000
Last trades
PRICE
USDT20
PM
TIME
1.033 1021.297193 1055.000 04.04.22 10:52
100.000 0.464580 46.458 17.02.22 12:04
1.020 5008.000000 5108.160 11.02.22 13:54
1.020 5007.000000 5107.140 11.02.22 11:58
1.020 249.750000 254.745 08.02.22 19:34
1.020 3011.000000 3071.220 08.02.22 15:45
1.020 5011.000000 5111.220 08.02.22 11:34
1.020 4949.000000 5047.980 03.02.22 15:50
1.023 0.900000 0.921 03.02.22 15:50
1.024 0.100000 0.102 03.02.22 15:50
1.036 8325.336055 8625.048 26.01.22 14:32
1.020 3000.000000 3060.000 18.01.22 12:00
1.020 4999.000000 5098.980 06.01.22 11:20
1.045 10443.900000 10913.876 28.12.21 13:49
1.000 2002.762746 2002.763 17.12.21 11:21
1.020 2217.237254 2261.582 17.12.21 11:21
1.045 2164.193301 2261.582 15.12.21 15:52
1.044 6412.277376 6694.418 15.12.21 15:52
1.044 1000.000000 1044.000 15.12.21 15:52
1.044 1915.708812 2000.000 11.12.21 10:22
1.044 1915.708812 2000.000 10.12.21 12:45
1.045 814.229665 850.870 09.12.21 14:22
1.030 796.000000 819.880 08.12.21 12:16
1.033 1670.000000 1725.110 08.12.21 12:16
1.034 1000.000000 1034.000 08.12.21 12:16
1.034 85.000000 87.890 08.12.21 12:16
1.034 915.000000 946.110 08.12.21 11:21
1.034 1786.000000 1846.724 08.12.21 11:21
1.034 3053.000000 3156.802 08.12.21 09:18
1.036 2000.000000 2072.000 08.12.21 09:18
1.038 3853.564547 4000.000 07.12.21 16:36
1.000 489.255422 489.255 07.12.21 09:59
1.000 1.000000 1.000 07.12.21 09:59
1.033 4560.744578 4711.249 07.12.21 09:59
1.038 1334.050097 1384.744 07.12.21 08:14
1.038 14.697495 15.256 07.12.21 08:14
1.038 10597.302505 11000.000 04.12.21 17:36
1.033 5342.450000 5518.751 02.12.21 05:26
1.035 4388.000000 4541.580 02.12.21 05:26
1.035 5301.000000 5486.535 25.11.21 12:10
1.035 5311.000000 5496.885 25.11.21 10:07
1.038 4224.055877 4384.570 16.11.21 15:13
1.033 16000.000000 16528.000 16.11.21 15:13
1.035 9932.366183 10279.999 15.11.21 13:18
1.029 2236.028679 2300.874 13.11.21 09:32
1.031 6031.037827 6218.000 13.11.21 09:32
1.032 13883.833494 14328.116 13.11.21 09:32
1.035 2.000000 2.070 12.11.21 18:50
1.035 2.000000 2.070 12.11.21 18:50
1.035 3.000000 3.105 12.11.21 18:49

Buying and selling USDT20 for PM on Cryptex exchange

The exchange of USDT20 to PM is one of the most popular operations on the international cryptocurrency platform Cryptex. This digital asset is pegged to the U.S. dollar and the system is maintained by Tether Limited. USDT20 tokens are backed by a dollar reserve held on Tether's balance sheet. The developers of the cryptocurrency claim that behind every Tether token issued is a real U.S. dollar. Currently, the USDT20 exchange rate is {{ course_usdt20_in_pm }} PM.

With the Cryptex trading platform, you can carry out various operations of cryptocurrency exchange using USDT20. Access to the functionality of the exchange and the trading platform is open immediately after registration, without mandatory verification. Advantages of Cryptex service for buying and selling USDT20 tether and PM:

  • operators work 24/7 in Russian and English — round the clock exchange and support for traders of the exchange;
  • large exchange reserves — if there is not enough USDT20, the operator will inform about its replenishment;
  • no limits and restrictions on transactions;
  • individual exchange rate for investors with a solid deposit;
  • more than 20 ways to deposit/withdraw funds received during USDT20 exchange from the balance of the personal account, including visa/mc, perfect money, bitcoin;
  • API interface is supported on the platform.

The Cryptex international platform for exchanging and trading cryptocurrencies has been operating since 2016 and guarantees safe and secure storage of users' assets. The main part of capital is stored on cold wallets, which eliminates the risk of losing assets due to hackers attacks.

More about USDT20

Few years ago, exchanging cryptocurrencies for fiat with the help of exchange instruments was unprofitable and inconvenient. High fees, slow transaction processing and dependence on market volatility were to blame. The cryptocurrency USDT20 solved many traders' problems by reducing fees and speeding up the transactions. It was launched in 2015 on the Bitcoin blockchain, but later Tether also started working in the following networks:

  • Ethereum;
  • Tron;
  • EOS.

USDT20 tokens today are based on the Ethereum blockchain, and the network itself operates on the ERC-20 standard. The Cryptex platform offers USDT20 cryptocurrency exchange using a personal reserve, as well as a modern trading terminal for P2P exchange trading.

According to the open data of cryptocurrency networks through which USDT20 transactions are being processed, the cryptodollar token is used to buy and sell cryptocurrencies even more than bitcoin. USDT20 is a sought-after asset for traders. Because of the ability to exchange quickly at a steady base rate, exchange traders use USDT20 in short-term strategies.

Tether USDT20 withdrawal

Tether refers to a special group of cryptocurrencies — Stablecoins. These are digital assets that are used to eliminate the effects of cryptocurrency market volatility on transactions. Withdrawing USDT20 at the current dollar exchange rate can be done at any time, whereas exchanging Bitcoin and ethereum for fiat can be unprofitable due to the intra-day drop-off in the cryptocurrency value.

The popularity of USDT20 cryptocurrency is growing every day, and more and more often it is used not only as a tool for cryptocurrency exchange while trading, but also as an independent means of payment. Many trading platforms in the U.S., Europe and Asia support Tether payment directly. In Russia and the CIS, the use of cryptocurrency as a means of payment is not yet so common, so to use digital money, you must first withdraw USDT20 to your wallet in any fiat currency.

Olark Chat with us